sensor_id;sensor_type;location;lat;lon;timestamp;P1;durP1;ratioP1;P2;durP2;ratioP2
3309;SDS011;1667;53.238;10.394;2023-04-15T00:01:48;14.00;;;8.07;;
3309;SDS011;1667;53.238;10.394;2023-04-15T00:06:51;11.73;;;7.70;;
3309;SDS011;1667;53.238;10.394;2023-04-15T00:11:50;9.47;;;7.23;;
3309;SDS011;1667;53.238;10.394;2023-04-15T00:16:49;10.47;;;5.87;;
3309;SDS011;1667;53.238;10.394;2023-04-15T00:21:53;7.70;;;5.40;;
3309;SDS011;1667;53.238;10.394;2023-04-15T00:26:51;6.20;;;4.90;;
3309;SDS011;1667;53.238;10.394;2023-04-15T00:31:50;4.97;;;4.27;;
3309;SDS011;1667;53.238;10.394;2023-04-15T00:36:49;5.90;;;5.20;;
3309;SDS011;1667;53.238;10.394;2023-04-15T00:41:49;4.60;;;3.70;;
3309;SDS011;1667;53.238;10.394;2023-04-15T00:46:49;5.03;;;4.37;;
3309;SDS011;1667;53.238;10.394;2023-04-15T00:51:48;8.00;;;5.30;;
3309;SDS011;1667;53.238;10.394;2023-04-15T00:56:47;5.77;;;4.20;;
3309;SDS011;1667;53.238;10.394;2023-04-15T01:01:47;9.40;;;5.57;;
3309;SDS011;1667;53.238;10.394;2023-04-15T01:06:46;7.77;;;4.90;;
3309;SDS011;1667;53.238;10.394;2023-04-15T01:11:44;6.27;;;5.20;;
3309;SDS011;1667;53.238;10.394;2023-04-15T01:16:43;4.23;;;3.83;;
3309;SDS011;1667;53.238;10.394;2023-04-15T01:21:43;6.80;;;4.40;;
3309;SDS011;1667;53.238;10.394;2023-04-15T01:26:44;7.00;;;4.67;;
3309;SDS011;1667;53.238;10.394;2023-04-15T01:31:48;4.63;;;3.87;;
3309;SDS011;1667;53.238;10.394;2023-04-15T01:36:47;5.43;;;4.20;;
3309;SDS011;1667;53.238;10.394;2023-04-15T01:41:48;4.47;;;3.90;;
3309;SDS011;1667;53.238;10.394;2023-04-15T01:46:46;5.23;;;4.20;;
3309;SDS011;1667;53.238;10.394;2023-04-15T01:51:45;6.13;;;4.77;;
3309;SDS011;1667;53.238;10.394;2023-04-15T01:56:43;6.37;;;4.67;;
3309;SDS011;1667;53.238;10.394;2023-04-15T02:01:43;5.47;;;4.67;;
3309;SDS011;1667;53.238;10.394;2023-04-15T02:06:42;6.13;;;5.30;;
3309;SDS011;1667;53.238;10.394;2023-04-15T02:11:42;6.07;;;4.43;;
3309;SDS011;1667;53.238;10.394;2023-04-15T02:16:41;7.00;;;4.77;;
3309;SDS011;1667;53.238;10.394;2023-04-15T02:21:41;7.00;;;5.27;;
3309;SDS011;1667;53.238;10.394;2023-04-15T02:26:39;6.60;;;5.20;;
3309;SDS011;1667;53.238;10.394;2023-04-15T02:31:38;6.87;;;5.43;;
3309;SDS011;1667;53.238;10.394;2023-04-15T02:36:37;6.47;;;5.23;;
3309;SDS011;1667;53.238;10.394;2023-04-15T02:41:38;7.23;;;5.93;;
3309;SDS011;1667;53.238;10.394;2023-04-15T02:46:36;6.27;;;5.37;;
3309;SDS011;1667;53.238;10.394;2023-04-15T02:51:36;7.40;;;5.50;;
3309;SDS011;1667;53.238;10.394;2023-04-15T02:56:35;7.43;;;5.50;;
3309;SDS011;1667;53.238;10.394;2023-04-15T03:01:35;8.67;;;6.23;;
3309;SDS011;1667;53.238;10.394;2023-04-15T03:06:33;7.37;;;5.67;;
3309;SDS011;1667;53.238;10.394;2023-04-15T03:11:32;8.20;;;6.30;;
3309;SDS011;1667;53.238;10.394;2023-04-15T03:16:39;10.47;;;7.23;;
3309;SDS011;1667;53.238;10.394;2023-04-15T03:21:37;11.63;;;7.80;;
3309;SDS011;1667;53.238;10.394;2023-04-15T03:26:37;9.50;;;6.33;;
3309;SDS011;1667;53.238;10.394;2023-04-15T03:31:43;10.13;;;7.60;;
3309;SDS011;1667;53.238;10.394;2023-04-15T03:36:42;13.10;;;8.33;;
3309;SDS011;1667;53.238;10.394;2023-04-15T03:41:41;12.37;;;7.73;;
3309;SDS011;1667;53.238;10.394;2023-04-15T03:46:39;17.83;;;9.30;;
3309;SDS011;1667;53.238;10.394;2023-04-15T03:51:39;12.80;;;8.90;;
3309;SDS011;1667;53.238;10.394;2023-04-15T03:56:39;14.90;;;8.50;;
3309;SDS011;1667;53.238;10.394;2023-04-15T04:01:38;14.50;;;8.87;;
3309;SDS011;1667;53.238;10.394;2023-04-15T04:06:37;14.90;;;8.47;;
3309;SDS011;1667;53.238;10.394;2023-04-15T04:11:37;14.37;;;8.50;;
3309;SDS011;1667;53.238;10.394;2023-04-15T04:16:35;17.20;;;9.63;;
3309;SDS011;1667;53.238;10.394;2023-04-15T04:21:34;20.67;;;10.77;;
3309;SDS011;1667;53.238;10.394;2023-04-15T04:26:33;22.00;;;10.33;;
3309;SDS011;1667;53.238;10.394;2023-04-15T04:31:33;16.60;;;9.97;;
3309;SDS011;1667;53.238;10.394;2023-04-15T04:36:32;21.10;;;11.33;;
3309;SDS011;1667;53.238;10.394;2023-04-15T04:41:30;21.63;;;11.17;;
3309;SDS011;1667;53.238;10.394;2023-04-15T04:46:29;18.20;;;10.70;;
3309;SDS011;1667;53.238;10.394;2023-04-15T04:51:28;16.13;;;10.20;;
3309;SDS011;1667;53.238;10.394;2023-04-15T04:56:28;22.23;;;11.30;;
3309;SDS011;1667;53.238;10.394;2023-04-15T05:01:26;17.93;;;9.87;;
3309;SDS011;1667;53.238;10.394;2023-04-15T05:06:25;19.13;;;10.90;;
3309;SDS011;1667;53.238;10.394;2023-04-15T05:11:27;19.00;;;9.63;;
3309;SDS011;1667;53.238;10.394;2023-04-15T05:16:26;22.40;;;10.90;;
3309;SDS011;1667;53.238;10.394;2023-04-15T05:21:24;20.40;;;11.70;;
3309;SDS011;1667;53.238;10.394;2023-04-15T05:26:23;22.87;;;13.60;;
3309;SDS011;1667;53.238;10.394;2023-04-15T05:31:24;20.50;;;11.90;;
3309;SDS011;1667;53.238;10.394;2023-04-15T05:36:23;24.17;;;11.00;;
3309;SDS011;1667;53.238;10.394;2023-04-15T05:41:21;21.63;;;11.60;;
3309;SDS011;1667;53.238;10.394;2023-04-15T05:46:20;20.33;;;12.00;;
3309;SDS011;1667;53.238;10.394;2023-04-15T05:51:20;25.20;;;12.50;;
3309;SDS011;1667;53.238;10.394;2023-04-15T05:56:19;25.37;;;11.87;;
3309;SDS011;1667;53.238;10.394;2023-04-15T06:01:17;24.10;;;13.10;;
3309;SDS011;1667;53.238;10.394;2023-04-15T06:06:16;30.97;;;13.13;;
3309;SDS011;1667;53.238;10.394;2023-04-15T06:11:16;31.10;;;14.63;;
3309;SDS011;1667;53.238;10.394;2023-04-15T06:16:14;34.90;;;17.93;;
3309;SDS011;1667;53.238;10.394;2023-04-15T06:21:13;30.80;;;16.73;;
3309;SDS011;1667;53.238;10.394;2023-04-15T06:26:12;33.73;;;15.40;;
3309;SDS011;1667;53.238;10.394;2023-04-15T06:31:11;34.20;;;15.20;;
3309;SDS011;1667;53.238;10.394;2023-04-15T06:36:10;35.43;;;19.00;;
3309;SDS011;1667;53.238;10.394;2023-04-15T06:41:08;32.17;;;16.23;;
3309;SDS011;1667;53.238;10.394;2023-04-15T06:46:07;35.57;;;17.60;;
3309;SDS011;1667;53.238;10.394;2023-04-15T06:51:07;35.00;;;20.43;;
3309;SDS011;1667;53.238;10.394;2023-04-15T06:56:06;40.50;;;22.20;;
3309;SDS011;1667;53.238;10.394;2023-04-15T07:01:05;46.87;;;23.10;;
3309;SDS011;1667;53.238;10.394;2023-04-15T07:06:04;36.70;;;20.63;;
3309;SDS011;1667;53.238;10.394;2023-04-15T07:11:04;42.77;;;20.93;;
3309;SDS011;1667;53.238;10.394;2023-04-15T07:16:03;41.17;;;22.77;;
3309;SDS011;1667;53.238;10.394;2023-04-15T07:21:02;45.57;;;23.90;;
3309;SDS011;1667;53.238;10.394;2023-04-15T07:26:01;49.10;;;22.30;;
3309;SDS011;1667;53.238;10.394;2023-04-15T07:31:01;52.07;;;27.63;;
3309;SDS011;1667;53.238;10.394;2023-04-15T07:36:00;48.33;;;25.57;;
3309;SDS011;1667;53.238;10.394;2023-04-15T07:40:58;49.03;;;26.10;;
3309;SDS011;1667;53.238;10.394;2023-04-15T07:45:57;55.77;;;24.70;;
3309;SDS011;1667;53.238;10.394;2023-04-15T07:50:57;50.50;;;27.87;;
3309;SDS011;1667;53.238;10.394;2023-04-15T07:55:56;55.70;;;24.20;;
3309;SDS011;1667;53.238;10.394;2023-04-15T08:00:54;50.57;;;25.43;;
3309;SDS011;1667;53.238;10.394;2023-04-15T08:05:53;47.50;;;22.67;;
3309;SDS011;1667;53.238;10.394;2023-04-15T08:10:53;50.37;;;23.93;;
3309;SDS011;1667;53.238;10.394;2023-04-15T08:15:52;53.30;;;26.23;;
3309;SDS011;1667;53.238;10.394;2023-04-15T08:21:06;47.07;;;23.90;;
3309;SDS011;1667;53.238;10.394;2023-04-15T08:26:06;54.23;;;23.83;;
3309;SDS011;1667;53.238;10.394;2023-04-15T08:31:05;59.07;;;28.83;;
3309;SDS011;1667;53.238;10.394;2023-04-15T08:36:05;54.60;;;29.33;;
3309;SDS011;1667;53.238;10.394;2023-04-15T08:41:08;51.43;;;25.50;;
3309;SDS011;1667;53.238;10.394;2023-04-15T08:46:12;53.00;;;24.40;;
3309;SDS011;1667;53.238;10.394;2023-04-15T08:51:12;57.80;;;26.03;;
3309;SDS011;1667;53.238;10.394;2023-04-15T08:56:14;55.43;;;27.30;;
3309;SDS011;1667;53.238;10.394;2023-04-15T09:01:13;58.53;;;31.10;;
3309;SDS011;1667;53.238;10.394;2023-04-15T09:06:12;57.07;;;27.50;;
3309;SDS011;1667;53.238;10.394;2023-04-15T09:11:14;50.20;;;24.63;;
3309;SDS011;1667;53.238;10.394;2023-04-15T09:16:15;54.97;;;27.00;;
3309;SDS011;1667;53.238;10.394;2023-04-15T09:21:15;39.43;;;20.20;;
3309;SDS011;1667;53.238;10.394;2023-04-15T09:26:16;52.30;;;23.20;;
3309;SDS011;1667;53.238;10.394;2023-04-15T09:31:14;52.33;;;26.37;;
3309;SDS011;1667;53.238;10.394;2023-04-15T09:36:13;49.77;;;23.90;;
3309;SDS011;1667;53.238;10.394;2023-04-15T09:41:16;52.47;;;28.47;;
3309;SDS011;1667;53.238;10.394;2023-04-15T09:46:16;49.23;;;24.50;;
3309;SDS011;1667;53.238;10.394;2023-04-15T09:51:14;51.40;;;25.23;;
3309;SDS011;1667;53.238;10.394;2023-04-15T09:56:14;48.03;;;24.47;;
3309;SDS011;1667;53.238;10.394;2023-04-15T10:01:13;45.83;;;24.83;;
3309;SDS011;1667;53.238;10.394;2023-04-15T10:06:12;45.83;;;26.70;;
3309;SDS011;1667;53.238;10.394;2023-04-15T10:11:12;37.67;;;19.80;;
3309;SDS011;1667;53.238;10.394;2023-04-15T10:16:11;43.20;;;22.80;;
3309;SDS011;1667;53.238;10.394;2023-04-15T10:21:13;44.60;;;23.40;;
3309;SDS011;1667;53.238;10.394;2023-04-15T10:26:15;40.10;;;21.97;;
3309;SDS011;1667;53.238;10.394;2023-04-15T10:31:15;36.07;;;20.50;;
3309;SDS011;1667;53.238;10.394;2023-04-15T10:36:15;37.20;;;20.80;;
3309;SDS011;1667;53.238;10.394;2023-04-15T10:41:16;36.93;;;20.80;;
3309;SDS011;1667;53.238;10.394;2023-04-15T10:46:20;35.70;;;20.93;;
3309;SDS011;1667;53.238;10.394;2023-04-15T10:51:29;36.23;;;22.30;;
3309;SDS011;1667;53.238;10.394;2023-04-15T10:56:28;32.53;;;19.70;;
3309;SDS011;1667;53.238;10.394;2023-04-15T11:07:03;32.80;;;19.80;;
3309;SDS011;1667;53.238;10.394;2023-04-15T11:12:06;33.27;;;22.07;;
3309;SDS011;1667;53.238;10.394;2023-04-15T11:17:07;26.33;;;17.40;;
3309;SDS011;1667;53.238;10.394;2023-04-15T11:22:07;27.80;;;17.80;;
3309;SDS011;1667;53.238;10.394;2023-04-15T11:27:05;30.13;;;19.03;;
3309;SDS011;1667;53.238;10.394;2023-04-15T11:32:04;25.80;;;16.93;;
3309;SDS011;1667;53.238;10.394;2023-04-15T11:37:05;30.00;;;20.30;;
3309;SDS011;1667;53.238;10.394;2023-04-15T11:42:11;27.53;;;17.67;;
3309;SDS011;1667;53.238;10.394;2023-04-15T11:47:22;25.23;;;18.23;;
3309;SDS011;1667;53.238;10.394;2023-04-15T11:52:22;30.10;;;18.20;;
3309;SDS011;1667;53.238;10.394;2023-04-15T11:57:21;30.57;;;19.20;;
3309;SDS011;1667;53.238;10.394;2023-04-15T12:02:29;31.73;;;18.17;;
3309;SDS011;1667;53.238;10.394;2023-04-15T12:07:30;26.27;;;16.53;;
3309;SDS011;1667;53.238;10.394;2023-04-15T12:12:28;28.23;;;18.07;;
3309;SDS011;1667;53.238;10.394;2023-04-15T12:17:27;26.07;;;16.30;;
3309;SDS011;1667;53.238;10.394;2023-04-15T12:22:47;26.90;;;17.60;;
3309;SDS011;1667;53.238;10.394;2023-04-15T12:27:49;26.80;;;17.00;;
3309;SDS011;1667;53.238;10.394;2023-04-15T12:32:49;23.87;;;18.00;;
3309;SDS011;1667;53.238;10.394;2023-04-15T12:37:51;22.63;;;16.00;;
3309;SDS011;1667;53.238;10.394;2023-04-15T12:42:49;26.90;;;15.63;;
3309;SDS011;1667;53.238;10.394;2023-04-15T12:47:48;22.60;;;16.40;;
3309;SDS011;1667;53.238;10.394;2023-04-15T12:52:46;22.47;;;15.70;;
3309;SDS011;1667;53.238;10.394;2023-04-15T12:57:46;20.37;;;14.80;;
3309;SDS011;1667;53.238;10.394;2023-04-15T13:02:45;20.07;;;15.47;;
3309;SDS011;1667;53.238;10.394;2023-04-15T13:07:44;16.73;;;12.93;;
3309;SDS011;1667;53.238;10.394;2023-04-15T13:12:42;20.50;;;13.83;;
3309;SDS011;1667;53.238;10.394;2023-04-15T13:17:43;16.40;;;14.60;;
3309;SDS011;1667;53.238;10.394;2023-04-15T13:22:42;17.33;;;13.87;;
3309;SDS011;1667;53.238;10.394;2023-04-15T13:27:41;20.37;;;14.63;;
3309;SDS011;1667;53.238;10.394;2023-04-15T13:32:39;20.03;;;12.93;;
3309;SDS011;1667;53.238;10.394;2023-04-15T13:37:39;14.80;;;12.30;;
3309;SDS011;1667;53.238;10.394;2023-04-15T13:42:37;17.43;;;12.57;;
3309;SDS011;1667;53.238;10.394;2023-04-15T13:47:36;19.17;;;14.97;;
3309;SDS011;1667;53.238;10.394;2023-04-15T13:52:35;19.60;;;13.77;;
3309;SDS011;1667;53.238;10.394;2023-04-15T13:57:35;19.00;;;13.50;;
3309;SDS011;1667;53.238;10.394;2023-04-15T14:02:33;16.00;;;13.07;;
3309;SDS011;1667;53.238;10.394;2023-04-15T14:07:33;15.03;;;12.23;;
3309;SDS011;1667;53.238;10.394;2023-04-15T14:12:31;17.93;;;13.80;;
3309;SDS011;1667;53.238;10.394;2023-04-15T14:17:31;15.63;;;11.80;;
3309;SDS011;1667;53.238;10.394;2023-04-15T14:22:30;17.63;;;12.43;;
3309;SDS011;1667;53.238;10.394;2023-04-15T14:27:28;15.93;;;11.93;;
3309;SDS011;1667;53.238;10.394;2023-04-15T14:32:27;19.10;;;12.83;;
3309;SDS011;1667;53.238;10.394;2023-04-15T14:37:27;15.80;;;11.40;;
3309;SDS011;1667;53.238;10.394;2023-04-15T14:42:25;15.80;;;11.37;;
3309;SDS011;1667;53.238;10.394;2023-04-15T14:47:24;18.43;;;12.10;;
3309;SDS011;1667;53.238;10.394;2023-04-15T14:52:22;13.80;;;11.40;;
3309;SDS011;1667;53.238;10.394;2023-04-15T14:57:22;13.93;;;11.03;;
3309;SDS011;1667;53.238;10.394;2023-04-15T15:02:21;15.23;;;11.23;;
3309;SDS011;1667;53.238;10.394;2023-04-15T15:07:33;20.00;;;11.90;;
3309;SDS011;1667;53.238;10.394;2023-04-15T15:12:34;15.50;;;10.47;;
3309;SDS011;1667;53.238;10.394;2023-04-15T15:17:33;16.27;;;11.97;;
3309;SDS011;1667;53.238;10.394;2023-04-15T15:22:32;13.97;;;10.97;;
3309;SDS011;1667;53.238;10.394;2023-04-15T15:27:30;13.70;;;11.93;;
3309;SDS011;1667;53.238;10.394;2023-04-15T15:32:30;14.80;;;10.67;;
3309;SDS011;1667;53.238;10.394;2023-04-15T15:37:28;15.17;;;11.00;;
3309;SDS011;1667;53.238;10.394;2023-04-15T15:42:28;14.47;;;12.47;;
3309;SDS011;1667;53.238;10.394;2023-04-15T15:47:30;13.93;;;11.13;;
3309;SDS011;1667;53.238;10.394;2023-04-15T15:52:28;18.33;;;13.17;;
3309;SDS011;1667;53.238;10.394;2023-04-15T15:57:27;20.20;;;14.13;;
3309;SDS011;1667;53.238;10.394;2023-04-15T16:02:25;17.00;;;13.13;;
3309;SDS011;1667;53.238;10.394;2023-04-15T16:07:47;18.53;;;13.47;;
3309;SDS011;1667;53.238;10.394;2023-04-15T16:12:46;19.27;;;12.70;;
3309;SDS011;1667;53.238;10.394;2023-04-15T16:17:44;18.30;;;13.50;;
3309;SDS011;1667;53.238;10.394;2023-04-15T16:22:43;18.03;;;13.90;;
3309;SDS011;1667;53.238;10.394;2023-04-15T16:27:43;17.80;;;12.60;;
3309;SDS011;1667;53.238;10.394;2023-04-15T16:32:56;18.13;;;13.70;;
3309;SDS011;1667;53.238;10.394;2023-04-15T16:37:55;18.90;;;13.77;;
3309;SDS011;1667;53.238;10.394;2023-04-15T16:42:55;22.13;;;13.80;;
3309;SDS011;1667;53.238;10.394;2023-04-15T16:47:53;19.23;;;15.43;;
3309;SDS011;1667;53.238;10.394;2023-04-15T16:52:52;19.70;;;15.80;;
3309;SDS011;1667;53.238;10.394;2023-04-15T16:57:51;20.67;;;14.00;;
3309;SDS011;1667;53.238;10.394;2023-04-15T17:03:00;22.07;;;16.17;;
3309;SDS011;1667;53.238;10.394;2023-04-15T17:07:59;19.40;;;13.90;;
3309;SDS011;1667;53.238;10.394;2023-04-15T17:12:57;20.33;;;16.27;;
3309;SDS011;1667;53.238;10.394;2023-04-15T17:17:56;23.40;;;15.90;;
3309;SDS011;1667;53.238;10.394;2023-04-15T17:22:56;23.93;;;17.60;;
3309;SDS011;1667;53.238;10.394;2023-04-15T17:34:51;24.47;;;15.93;;
3309;SDS011;1667;53.238;10.394;2023-04-15T17:39:51;25.50;;;15.80;;
3309;SDS011;1667;53.238;10.394;2023-04-15T17:44:49;26.00;;;16.20;;
3309;SDS011;1667;53.238;10.394;2023-04-15T17:49:48;27.10;;;17.40;;
3309;SDS011;1667;53.238;10.394;2023-04-15T17:54:46;26.97;;;15.90;;
3309;SDS011;1667;53.238;10.394;2023-04-15T17:59:46;24.30;;;17.33;;
3309;SDS011;1667;53.238;10.394;2023-04-15T18:04:44;28.30;;;19.33;;
3309;SDS011;1667;53.238;10.394;2023-04-15T18:09:43;24.03;;;17.93;;
3309;SDS011;1667;53.238;10.394;2023-04-15T18:14:42;29.10;;;19.20;;
3309;SDS011;1667;53.238;10.394;2023-04-15T18:19:42;27.57;;;18.70;;
3309;SDS011;1667;53.238;10.394;2023-04-15T18:24:41;26.67;;;18.10;;
3309;SDS011;1667;53.238;10.394;2023-04-15T18:29:40;28.73;;;20.40;;
3309;SDS011;1667;53.238;10.394;2023-04-15T18:34:39;30.20;;;17.83;;
3309;SDS011;1667;53.238;10.394;2023-04-15T18:39:39;27.07;;;17.13;;
3309;SDS011;1667;53.238;10.394;2023-04-15T18:44:38;29.30;;;19.30;;
3309;SDS011;1667;53.238;10.394;2023-04-15T18:49:37;30.73;;;19.00;;
3309;SDS011;1667;53.238;10.394;2023-04-15T18:54:35;25.57;;;17.30;;
3309;SDS011;1667;53.238;10.394;2023-04-15T18:59:35;31.90;;;21.10;;
3309;SDS011;1667;53.238;10.394;2023-04-15T19:04:34;29.50;;;18.67;;
3309;SDS011;1667;53.238;10.394;2023-04-15T19:09:32;26.03;;;19.20;;
3309;SDS011;1667;53.238;10.394;2023-04-15T19:14:31;32.33;;;21.67;;
3309;SDS011;1667;53.238;10.394;2023-04-15T19:19:31;26.30;;;17.87;;
3309;SDS011;1667;53.238;10.394;2023-04-15T19:24:30;32.57;;;20.90;;
3309;SDS011;1667;53.238;10.394;2023-04-15T19:29:29;35.50;;;22.40;;
3309;SDS011;1667;53.238;10.394;2023-04-15T19:34:28;36.10;;;20.00;;
3309;SDS011;1667;53.238;10.394;2023-04-15T19:39:28;31.10;;;21.83;;
3309;SDS011;1667;53.238;10.394;2023-04-15T19:44:27;32.83;;;22.93;;
3309;SDS011;1667;53.238;10.394;2023-04-15T19:49:25;34.83;;;23.03;;
3309;SDS011;1667;53.238;10.394;2023-04-15T19:54:24;40.07;;;21.43;;
3309;SDS011;1667;53.238;10.394;2023-04-15T19:59:24;31.67;;;21.97;;
3309;SDS011;1667;53.238;10.394;2023-04-15T20:04:22;34.67;;;19.37;;
3309;SDS011;1667;53.238;10.394;2023-04-15T20:09:21;32.70;;;22.30;;
3309;SDS011;1667;53.238;10.394;2023-04-15T20:14:20;34.50;;;20.50;;
3309;SDS011;1667;53.238;10.394;2023-04-15T20:19:22;31.47;;;19.57;;
3309;SDS011;1667;53.238;10.394;2023-04-15T20:24:20;35.33;;;21.03;;
3309;SDS011;1667;53.238;10.394;2023-04-15T20:29:19;41.40;;;23.53;;
3309;SDS011;1667;53.238;10.394;2023-04-15T20:34:18;39.77;;;21.70;;
3309;SDS011;1667;53.238;10.394;2023-04-15T20:39:18;31.10;;;20.30;;
3309;SDS011;1667;53.238;10.394;2023-04-15T20:44:17;29.17;;;18.90;;
3309;SDS011;1667;53.238;10.394;2023-04-15T20:49:15;33.17;;;20.07;;
3309;SDS011;1667;53.238;10.394;2023-04-15T20:54:14;38.83;;;24.10;;
3309;SDS011;1667;53.238;10.394;2023-04-15T20:59:16;38.10;;;22.00;;
3309;SDS011;1667;53.238;10.394;2023-04-15T21:04:14;31.03;;;20.83;;
3309;SDS011;1667;53.238;10.394;2023-04-15T21:09:13;32.90;;;20.47;;
3309;SDS011;1667;53.238;10.394;2023-04-15T21:14:11;34.80;;;20.73;;
3309;SDS011;1667;53.238;10.394;2023-04-15T21:19:11;30.80;;;19.10;;
3309;SDS011;1667;53.238;10.394;2023-04-15T21:24:09;37.80;;;21.97;;
3309;SDS011;1667;53.238;10.394;2023-04-15T21:29:08;36.47;;;20.70;;
3309;SDS011;1667;53.238;10.394;2023-04-15T21:34:07;39.67;;;23.43;;
3309;SDS011;1667;53.238;10.394;2023-04-15T21:39:07;37.70;;;21.40;;
3309;SDS011;1667;53.238;10.394;2023-04-15T21:44:06;36.17;;;21.70;;
3309;SDS011;1667;53.238;10.394;2023-04-15T21:49:04;32.03;;;21.87;;
3309;SDS011;1667;53.238;10.394;2023-04-15T21:54:03;37.33;;;21.10;;
3309;SDS011;1667;53.238;10.394;2023-04-15T21:59:03;38.37;;;23.70;;
3309;SDS011;1667;53.238;10.394;2023-04-15T22:04:02;41.07;;;23.20;;
3309;SDS011;1667;53.238;10.394;2023-04-15T22:09:03;37.97;;;24.03;;
3309;SDS011;1667;53.238;10.394;2023-04-15T22:14:03;36.23;;;19.27;;
3309;SDS011;1667;53.238;10.394;2023-04-15T22:19:02;46.90;;;23.83;;
3309;SDS011;1667;53.238;10.394;2023-04-15T22:24:01;39.70;;;24.87;;
3309;SDS011;1667;53.238;10.394;2023-04-15T22:29:21;42.77;;;25.03;;
3309;SDS011;1667;53.238;10.394;2023-04-15T22:34:19;42.07;;;24.63;;
3309;SDS011;1667;53.238;10.394;2023-04-15T22:39:18;36.47;;;22.03;;
3309;SDS011;1667;53.238;10.394;2023-04-15T22:44:17;45.63;;;24.50;;
3309;SDS011;1667;53.238;10.394;2023-04-15T22:49:17;38.00;;;23.47;;
3309;SDS011;1667;53.238;10.394;2023-04-15T22:54:15;39.07;;;21.23;;
3309;SDS011;1667;53.238;10.394;2023-04-15T22:59:13;31.17;;;20.93;;
3309;SDS011;1667;53.238;10.394;2023-04-15T23:04:12;32.80;;;21.10;;
3309;SDS011;1667;53.238;10.394;2023-04-15T23:09:24;43.47;;;22.73;;
3309;SDS011;1667;53.238;10.394;2023-04-15T23:14:23;36.70;;;21.17;;
3309;SDS011;1667;53.238;10.394;2023-04-15T23:19:23;38.57;;;22.93;;
3309;SDS011;1667;53.238;10.394;2023-04-15T23:24:22;38.07;;;21.33;;
3309;SDS011;1667;53.238;10.394;2023-04-15T23:29:22;36.83;;;20.43;;
3309;SDS011;1667;53.238;10.394;2023-04-15T23:34:20;33.73;;;20.10;;
3309;SDS011;1667;53.238;10.394;2023-04-15T23:39:19;40.50;;;19.93;;
3309;SDS011;1667;53.238;10.394;2023-04-15T23:44:17;35.70;;;20.20;;
3309;SDS011;1667;53.238;10.394;2023-04-15T23:49:17;35.83;;;20.70;;
3309;SDS011;1667;53.238;10.394;2023-04-15T23:54:16;35.57;;;23.00;;
3309;SDS011;1667;53.238;10.394;2023-04-15T23:59:14;37.27;;;21.83;;
